Time;durP1;ratioP1;P1;durP2;ratioP2;P2;SDS_P1;SDS_P2;PMS_P1;PMS_P2;Temp;Humidity;BMP_temperature;BMP_pressure;BME280_temperature;BME280_humidity;BME280_pressure;Samples;Min_cycle;Max_cycle;Signal;HPM_P1;HPM_P2
2023/09/08 00:01:35;;;;;;;;;;;;;;;15.46;100.00;101666.72;5029810;28;19952;-73
2023/09/08 00:04:00;;;;;;;;;;;;;;;15.40;100.00;101669.94;5030889;28;20606;-74
2023/09/08 00:06:26;;;;;;;;;;;;;;;15.33;100.00;101677.72;5034521;28;20069;-73
2023/09/08 00:08:51;;;;;;;;;;;;;;;15.29;100.00;101644.66;5036961;28;20275;-74
2023/09/08 00:11:17;;;;;;;;;;;;;;;15.39;100.00;101677.19;5035223;28;20290;-74
2023/09/08 00:13:42;;;;;;;;;;;;;;;15.39;100.00;101677.19;5033635;28;20359;-74
2023/09/08 00:16:07;;;;;;;;;;;;;;;15.33;100.00;101671.44;5033639;28;19952;-74
2023/09/08 00:18:33;;;;;;;;;;;;;;;15.30;100.00;101669.88;5039666;28;19928;-74
2023/09/08 00:20:58;;;;;;;;;;;;;;;15.26;100.00;101666.53;5034888;28;20408;-73
2023/09/08 00:23:23;;;;;;;;;;;;;;;15.36;100.00;101680.16;5033577;28;19921;-74
2023/09/08 00:25:49;;;;;;;;;;;;;;;15.29;100.00;101673.56;5034561;28;19921;-74
2023/09/08 00:28:14;;;;;;;;;;;;;;;15.24;100.00;101675.78;5032849;28;19921;-74
2023/09/08 00:30:39;;;;;;;;;;;;;;;15.20;100.00;101671.63;5028366;28;20068;-74
2023/09/08 00:33:08;;;;;;;;;;;;;;;15.20;100.00;101675.22;5030308;28;19932;-74
2023/09/08 00:35:33;;;;;;;;;;;;;;;15.18;100.00;101679.88;5030064;28;19960;-74
2023/09/08 00:37:58;;;;;;;;;;;;;;;15.16;100.00;101681.84;5032231;28;20066;-73
2023/09/08 00:40:24;;;;;;;;;;;;;;;15.11;100.00;101678.69;5029252;28;19925;-74
2023/09/08 00:42:49;;;;;;;;;;;;;;;15.05;100.00;101671.94;5034186;28;20022;-74
2023/09/08 00:45:14;;;;;;;;;;;;;;;14.89;100.00;101656.13;5028103;28;20383;-73
2023/09/08 00:47:39;;;;;;;;;;;;;;;15.03;100.00;101673.03;5034015;28;19917;-74
2023/09/08 00:50:05;;;;;;;;;;;;;;;15.08;100.00;101677.09;5028194;28;20128;-74
2023/09/08 00:52:32;;;;;;;;;;;;;;;15.10;100.00;101668.84;5034437;28;19932;-74
2023/09/08 00:54:57;;;;;;;;;;;;;;;15.10;100.00;101674.25;5026875;28;19921;-74
2023/09/08 00:57:23;;;;;;;;;;;;;;;15.09;100.00;101678.81;5031801;28;20415;-74
2023/09/08 00:59:48;;;;;;;;;;;;;;;15.10;100.00;101676.97;5032490;28;19931;-74
2023/09/08 01:02:13;;;;;;;;;;;;;;;15.13;100.00;101676.69;5029708;28;20397;-73
2023/09/08 01:04:40;;;;;;;;;;;;;;;14.98;100.00;101671.56;5029458;28;20711;-74
2023/09/08 01:07:06;;;;;;;;;;;;;;;15.02;100.00;101669.50;5028286;28;19927;-74
2023/09/08 01:09:31;;;;;;;;;;;;;;;14.98;100.00;101671.56;5031899;28;19917;-75
2023/09/08 01:12:00;;;;;;;;;;;;;;;14.94;100.00;101674.66;5034864;28;19928;-74
2023/09/08 01:14:26;;;;;;;;;;;;;;;14.89;100.00;101672.34;5030055;28;19952;-73
2023/09/08 01:16:51;;;;;;;;;;;;;;;14.89;100.00;101672.34;5029600;28;19928;-74
2023/09/08 01:19:17;;;;;;;;;;;;;;;14.88;100.00;101667.06;5035089;28;20325;-74
2023/09/08 01:21:42;;;;;;;;;;;;;;;14.78;100.00;101664.28;5030074;28;20264;-74
2023/09/08 01:24:39;;;;;;;;;;;;;;;14.76;100.00;101666.25;5032894;28;20484;-74
2023/09/08 01:27:07;;;;;;;;;;;;;;;14.71;100.00;101674.75;5019216;28;20351;-74
2023/09/08 01:29:32;;;;;;;;;;;;;;;14.74;100.00;101673.63;5026430;28;19952;-73
2023/09/08 01:31:57;;;;;;;;;;;;;;;14.77;100.00;101676.06;5016608;28;19925;-73
2023/09/08 01:34:22;;;;;;;;;;;;;;;14.81;100.00;101681.13;5033079;28;19959;-73
2023/09/08 01:36:48;;;;;;;;;;;;;;;14.79;100.00;101674.97;5029117;28;20015;-74
2023/09/08 01:39:13;;;;;;;;;;;;;;;14.73;100.00;101677.31;5033459;28;19917;-74
2023/09/08 01:41:38;;;;;;;;;;;;;;;14.81;100.00;101674.84;5031980;28;19927;-74
2023/09/08 01:44:07;;;;;;;;;;;;;;;14.81;100.00;101674.84;5031353;28;19967;-74
2023/09/08 01:46:36;;;;;;;;;;;;;;;14.88;100.00;101680.59;5031824;28;19927;-73
2023/09/08 01:49:01;;;;;;;;;;;;;;;14.94;100.00;101678.25;5035159;28;20351;-73
2023/09/08 01:51:26;;;;;;;;;;;;;;;14.94;100.00;101670.13;5033323;28;20356;-73
2023/09/08 01:53:51;;;;;;;;;;;;;;;14.96;100.00;101673.53;5032053;28;19927;-73
2023/09/08 01:56:17;;;;;;;;;;;;;;;14.97;100.00;101669.84;5032001;28;20027;-73
2023/09/08 01:58:42;;;;;;;;;;;;;;;14.97;100.00;101669.84;5025334;28;20603;-74
2023/09/08 02:01:07;;;;;;;;;;;;;;;14.98;100.00;101670.72;5028514;28;20385;-74
2023/09/08 02:03:32;;;;;;;;;;;;;;;14.95;100.00;101665.56;5030912;28;20481;-74
2023/09/08 02:05:58;;;;;;;;;;;;;;;14.92;100.00;101674.81;5034230;28;19928;-74
2023/09/08 02:08:23;;;;;;;;;;;;;;;14.89;100.00;101668.78;5031684;28;20359;-73
2023/09/08 02:10:48;;;;;;;;;;;;;;;14.85;100.00;101670.91;5027937;28;19939;-74
2023/09/08 02:13:13;;;;;;;;;;;;;;;14.91;100.00;101664.97;5030193;28;19971;-74
2023/09/08 02:15:39;;;;;;;;;;;;;;;15.00;100.00;101666.91;5032150;28;20018;-74
2023/09/08 02:18:04;;;;;;;;;;;;;;;15.06;100.00;101660.13;5014810;28;19925;-74
2023/09/08 02:20:29;;;;;;;;;;;;;;;15.10;100.00;101663.44;5013138;28;19921;-74
2023/09/08 02:22:54;;;;;;;;;;;;;;;15.11;100.00;101659.75;5032102;28;19920;-74
2023/09/08 02:25:20;;;;;;;;;;;;;;;15.14;100.00;101662.19;5030236;28;19923;-73
2023/09/08 02:27:45;;;;;;;;;;;;;;;15.22;100.00;101664.25;5027083;28;20352;-74
2023/09/08 02:30:10;;;;;;;;;;;;;;;15.27;100.00;101654.75;5024705;28;19925;-73
2023/09/08 02:32:35;;;;;;;;;;;;;;;15.30;100.00;101657.19;5030306;28;19924;-74
2023/09/08 02:35:00;;;;;;;;;;;;;;;15.31;100.00;101655.34;5021045;28;19990;-73
2023/09/08 02:37:26;;;;;;;;;;;;;;;15.30;100.00;101653.63;5027888;28;19924;-73
2023/09/08 02:39:51;;;;;;;;;;;;;;;15.25;100.00;101663.97;5032383;28;19952;-73
2023/09/08 02:42:16;;;;;;;;;;;;;;;15.15;100.00;101653.09;5032689;28;19983;-73
2023/09/08 02:44:41;;;;;;;;;;;;;;;15.08;100.00;101662.69;5028807;28;19960;-74
2023/09/08 02:47:07;;;;;;;;;;;;;;;15.04;100.00;101658.53;5027498;28;19927;-74
2023/09/08 02:49:32;;;;;;;;;;;;;;;15.06;100.00;101653.84;5028586;28;19982;-73
2023/09/08 02:51:57;;;;;;;;;;;;;;;15.06;100.00;101654.72;5027270;28;21049;-74
2023/09/08 02:54:22;;;;;;;;;;;;;;;15.04;100.00;101655.81;5029553;28;19920;-74
2023/09/08 02:56:48;;;;;;;;;;;;;;;15.00;100.00;101655.25;5012402;28;19924;-73
2023/09/08 02:59:13;;;;;;;;;;;;;;;14.96;100.00;101659.19;5030842;28;19967;-73
2023/09/08 03:01:38;;;;;;;;;;;;;;;14.89;100.00;101663.38;5026622;28;19921;-74
2023/09/08 03:04:03;;;;;;;;;;;;;;;14.91;100.00;101658.69;5028428;28;19971;-74
2023/09/08 03:06:28;;;;;;;;;;;;;;;14.88;100.00;101651.72;5033119;28;20019;-74
2023/09/08 03:08:54;;;;;;;;;;;;;;;14.85;100.00;101658.22;5022232;28;19925;-74
2023/09/08 03:11:19;;;;;;;;;;;;;;;14.80;100.00;101659.59;5025214;28;19921;-74
2023/09/08 03:13:44;;;;;;;;;;;;;;;14.80;100.00;101657.78;5027793;28;19950;-74
2023/09/08 03:16:10;;;;;;;;;;;;;;;14.80;100.00;101655.06;5026994;28;19921;-74
2023/09/08 03:18:36;;;;;;;;;;;;;;;14.84;100.00;101653.78;5025986;28;19925;-74
2023/09/08 03:21:08;;;;;;;;;;;;;;;14.90;100.00;101662.38;5030371;28;19916;-74
2023/09/08 03:23:33;;;;;;;;;;;;;;;14.89;100.00;101660.66;5029125;28;19932;-73
2023/09/08 03:25:59;;;;;;;;;;;;;;;14.73;100.00;101640.34;5026541;28;19941;-74
2023/09/08 03:28:24;;;;;;;;;;;;;;;14.82;100.00;101652.22;5033948;28;19987;-74
2023/09/08 03:30:49;;;;;;;;;;;;;;;14.76;100.00;101647.31;5035003;28;20519;-73
2023/09/08 03:33:14;;;;;;;;;;;;;;;14.69;100.00;101647.84;5028235;28;19962;-74
2023/09/08 03:35:39;;;;;;;;;;;;;;;14.66;100.00;101642.66;5013234;28;20079;-74
2023/09/08 03:38:05;;;;;;;;;;;;;;;14.69;100.00;101645.16;5034937;28;19983;-74
2023/09/08 03:40:30;;;;;;;;;;;;;;;14.64;100.00;101647.34;5032880;28;20315;-74
2023/09/08 03:42:55;;;;;;;;;;;;;;;14.55;100.00;101650.78;5028269;28;19968;-74
2023/09/08 03:45:20;;;;;;;;;;;;;;;14.46;100.00;101649.69;5029963;28;19967;-74
2023/09/08 03:47:46;;;;;;;;;;;;;;;14.44;100.00;101648.97;5034396;28;20019;-74
2023/09/08 03:50:11;;;;;;;;;;;;;;;14.48;100.00;101644.16;5028534;28;19928;-74
2023/09/08 03:52:36;;;;;;;;;;;;;;;14.52;100.00;101643.78;5031137;28;19980;-73
2023/09/08 03:55:01;;;;;;;;;;;;;;;14.50;100.00;101643.06;5013785;28;20275;-74
2023/09/08 03:57:27;;;;;;;;;;;;;;;14.46;100.00;101638.88;5033208;28;20426;-73
2023/09/08 03:59:52;;;;;;;;;;;;;;;14.42;100.00;101644.69;5037918;28;19940;-74
2023/09/08 04:02:17;;;;;;;;;;;;;;;14.39;100.00;101645.78;5034009;28;20409;-74
2023/09/08 04:04:42;;;;;;;;;;;;;;;14.35;100.00;101647.88;5034592;28;19928;-73
2023/09/08 04:07:07;;;;;;;;;;;;;;;14.35;100.00;101645.16;5026655;28;19928;-74
2023/09/08 04:09:33;;;;;;;;;;;;;;;14.32;100.00;101647.25;5026718;28;19921;-73
2023/09/08 04:11:58;;;;;;;;;;;;;;;14.31;100.00;101642.81;5032152;28;19955;-74
2023/09/08 04:14:26;;;;;;;;;;;;;;;14.31;100.00;101641.00;5032041;28;19932;-75
2023/09/08 04:16:52;;;;;;;;;;;;;;;14.29;100.00;101642.97;5027209;28;20441;-74
2023/09/08 04:19:17;;;;;;;;;;;;;;;14.30;100.00;101644.69;5027088;28;19920;-74
2023/09/08 04:21:42;;;;;;;;;;;;;;;14.27;100.00;101644.09;5034676;28;19920;-74
2023/09/08 04:24:10;;;;;;;;;;;;;;;14.26;100.00;101645.91;5031650;28;19921;-74
2023/09/08 04:26:35;;;;;;;;;;;;;;;14.22;100.00;101642.59;5028477;28;19962;-73
2023/09/08 04:29:00;;;;;;;;;;;;;;;14.26;100.00;101648.59;5029317;28;19921;-73
2023/09/08 04:31:25;;;;;;;;;;;;;;;14.26;100.00;101643.22;5032492;28;19921;-74
2023/09/08 04:33:53;;;;;;;;;;;;;;;14.27;100.00;101644.91;5032140;28;19936;-74
2023/09/08 04:36:18;;;;;;;;;;;;;;;14.33;100.00;101640.84;5027074;28;19925;-74
2023/09/08 04:38:44;;;;;;;;;;;;;;;14.30;100.00;101639.28;5023911;28;21402;-74
2023/09/08 04:41:09;;;;;;;;;;;;;;;14.33;100.00;101641.72;5028014;28;19921;-74
2023/09/08 04:43:34;;;;;;;;;;;;;;;14.36;100.00;101640.63;5026682;28;19927;-74
2023/09/08 04:46:02;;;;;;;;;;;;;;;14.38;100.00;101653.03;5028255;28;20026;-74
2023/09/08 04:48:28;;;;;;;;;;;;;;;14.44;100.00;101645.38;5031817;28;19943;-74
2023/09/08 04:50:53;;;;;;;;;;;;;;;14.48;100.00;101647.72;5030612;28;19925;-74
2023/09/08 04:53:18;;;;;;;;;;;;;;;14.49;100.00;101654.84;5014180;28;20430;-73
2023/09/08 04:55:43;;;;;;;;;;;;;;;14.52;100.00;101649.19;5033114;28;19921;-74
2023/09/08 04:58:08;;;;;;;;;;;;;;;14.58;100.00;101650.53;5029535;28;19924;-74
2023/09/08 05:00:34;;;;;;;;;;;;;;;14.66;100.00;101647.19;5027306;28;19936;-73
2023/09/08 05:02:59;;;;;;;;;;;;;;;14.70;100.00;101648.69;5024647;28;19948;-73
2023/09/08 05:05:24;;;;;;;;;;;;;;;14.74;100.00;101649.28;5025793;28;19924;-74
2023/09/08 05:07:50;;;;;;;;;;;;;;;14.74;100.00;101652.00;5031362;28;19923;-74
2023/09/08 05:10:19;;;;;;;;;;;;;;;14.73;100.00;101647.56;5028219;28;19925;-74
2023/09/08 05:12:44;;;;;;;;;;;;;;;14.75;100.00;101651.88;5028686;28;19920;-74
2023/09/08 05:15:14;;;;;;;;;;;;;;;14.76;100.00;101650.91;5030175;28;19954;-74
2023/09/08 05:17:40;;;;;;;;;;;;;;;14.72;100.00;101643.16;5031776;28;19928;-74
2023/09/08 05:20:05;;;;;;;;;;;;;;;14.75;100.00;101648.31;5027672;28;19928;-74
2023/09/08 05:22:30;;;;;;;;;;;;;;;14.87;100.00;101650.00;5028274;28;19925;-74
2023/09/08 05:24:56;;;;;;;;;;;;;;;14.97;100.00;101650.94;5027305;28;19921;-74
2023/09/08 05:27:21;;;;;;;;;;;;;;;15.01;100.00;101651.56;5028892;28;19971;-74
2023/09/08 05:29:46;;;;;;;;;;;;;;;15.03;100.00;101648.69;5013740;28;20011;-74
2023/09/08 05:32:12;;;;;;;;;;;;;;;15.00;100.00;101647.13;5029583;28;19925;-74
2023/09/08 05:34:37;;;;;;;;;;;;;;;15.10;100.00;101652.63;5031168;28;19921;-74
2023/09/08 05:37:02;;;;;;;;;;;;;;;15.14;100.00;101648.66;5030363;28;19964;-74
2023/09/08 05:39:28;;;;;;;;;;;;;;;15.12;100.00;101648.78;5034342;28;19927;-74
2023/09/08 05:41:53;;;;;;;;;;;;;;;15.15;100.00;101647.69;5030648;28;19921;-74
2023/09/08 05:44:18;;;;;;;;;;;;;;;15.23;100.00;101657.84;5029668;28;20444;-74
2023/09/08 05:46:43;;;;;;;;;;;;;;;15.30;100.00;101659.06;5029056;28;20015;-74
2023/09/08 05:49:09;;;;;;;;;;;;;;;15.36;100.00;101658.50;5016740;28;20278;-74
2023/09/08 05:51:34;;;;;;;;;;;;;;;15.43;100.00;101656.16;5031645;28;20185;-74
2023/09/08 05:53:59;;;;;;;;;;;;;;;15.51;100.00;101656.31;5028160;28;19992;-73
2023/09/08 05:56:26;;;;;;;;;;;;;;;15.59;100.00;101661.09;5030942;28;20066;-73
2023/09/08 05:58:52;;;;;;;;;;;;;;;15.65;100.00;101663.25;5015522;28;19920;-74
2023/09/08 06:01:17;;;;;;;;;;;;;;;15.73;100.00;101654.50;5024923;28;19920;-74
2023/09/08 06:03:42;;;;;;;;;;;;;;;15.80;100.00;101658.34;5029400;28;19927;-73
2023/09/08 06:06:08;;;;;;;;;;;;;;;15.91;100.00;101662.88;5027969;28;20366;-73
2023/09/08 06:08:33;;;;;;;;;;;;;;;16.00;100.00;101662.06;5030761;28;19921;-73
2023/09/08 06:10:58;;;;;;;;;;;;;;;16.09;100.00;101659.56;5027884;28;20384;-73
2023/09/08 06:13:23;;;;;;;;;;;;;;;16.18;100.00;101666.84;5032485;28;19944;-73
2023/09/08 06:15:48;;;;;;;;;;;;;;;16.31;100.00;101666.59;5030896;28;19927;-73
2023/09/08 06:18:14;;;;;;;;;;;;;;;16.21;100.00;101634.06;5027824;28;20271;-73
2023/09/08 06:20:45;;;;;;;;;;;;;;;16.56;100.00;101661.69;5032281;28;19939;-73
2023/09/08 06:23:11;;;;;;;;;;;;;;;16.71;100.00;101678.41;5028669;28;20050;-73
2023/09/08 06:25:36;;;;;;;;;;;;;;;16.85;100.00;101680.75;5030432;28;20110;-73
2023/09/08 06:28:01;;;;;;;;;;;;;;;16.98;100.00;101676.91;5026640;28;20213;-73
2023/09/08 06:30:26;;;;;;;;;;;;;;;17.05;100.00;101678.06;5030248;28;19923;-74
2023/09/08 06:32:51;;;;;;;;;;;;;;;17.13;100.00;101672.81;5011371;28;20688;-72
2023/09/08 06:35:17;;;;;;;;;;;;;;;17.20;100.00;101665.81;5030161;28;20023;-72
2023/09/08 06:37:42;;;;;;;;;;;;;;;17.30;100.00;101660.38;5019489;28;20042;-72
2023/09/08 06:40:07;;;;;;;;;;;;;;;17.41;100.00;101666.63;5027371;28;20447;-71
2023/09/08 06:42:32;;;;;;;;;;;;;;;17.56;100.00;101662.50;5029525;28;19921;-73
2023/09/08 06:44:58;;;;;;;;;;;;;;;17.66;100.00;101659.75;5029487;28;19998;-73
2023/09/08 06:47:23;;;;;;;;;;;;;;;17.76;100.00;101671.44;5028203;28;19966;-72
2023/09/08 06:49:49;;;;;;;;;;;;;;;17.91;100.00;101668.25;5013271;28;19991;-72
2023/09/08 06:52:14;;;;;;;;;;;;;;;18.01;100.00;101671.81;5030870;28;19956;-73
2023/09/08 06:54:39;;;;;;;;;;;;;;;18.09;100.00;101671.94;5033358;28;20003;-73
2023/09/08 06:57:04;;;;;;;;;;;;;;;18.18;100.00;101681.06;5027408;28;19925;-71
2023/09/08 06:59:29;;;;;;;;;;;;;;;18.28;100.00;101673.72;5026742;28;19927;-73
2023/09/08 07:01:55;;;;;;;;;;;;;;;18.37;100.00;101671.13;5030981;28;19928;-72
2023/09/08 07:04:20;;;;;;;;;;;;;;;18.51;100.00;101683.34;5030248;28;19925;-71
2023/09/08 07:06:46;;;;;;;;;;;;;;;18.66;100.00;101690.00;5031061;28;19955;-73
2023/09/08 07:09:11;;;;;;;;;;;;;;;18.78;100.00;101690.63;5031791;28;19916;-72
2023/09/08 07:11:36;;;;;;;;;;;;;;;18.92;100.00;101691.13;5038672;28;20003;-73
2023/09/08 07:14:02;;;;;;;;;;;;;;;19.03;100.00;101691.78;5035017;28;19966;-73
2023/09/08 07:16:27;;;;;;;;;;;;;;;19.16;100.00;101685.97;5032181;28;19920;-72
2023/09/08 07:18:52;;;;;;;;;;;;;;;19.26;100.00;101682.28;5033898;28;20375;-72
2023/09/08 07:21:18;;;;;;;;;;;;;;;19.39;100.00;101676.44;5034889;28;20416;-73
2023/09/08 07:23:44;;;;;;;;;;;;;;;19.48;100.00;101678.22;5031821;28;19963;-72
2023/09/08 07:26:09;;;;;;;;;;;;;;;19.63;100.00;101678.50;5035345;28;19968;-72
2023/09/08 07:28:34;;;;;;;;;;;;;;;19.76;100.00;101681.66;5030237;28;19935;-73
2023/09/08 07:31:02;;;;;;;;;;;;;;;19.93;100.00;101674.47;5034587;28;20011;-74
2023/09/08 07:33:28;;;;;;;;;;;;;;;20.08;100.00;101677.44;5033566;28;19960;-73
2023/09/08 07:35:53;;;;;;;;;;;;;;;20.25;100.00;101673.97;5035134;28;20533;-73
2023/09/08 07:38:18;;;;;;;;;;;;;;;20.36;100.00;101679.13;5028596;28;20425;-74
2023/09/08 07:40:43;;;;;;;;;;;;;;;20.50;100.00;101681.22;5029960;28;20358;-73
2023/09/08 07:43:08;;;;;;;;;;;;;;;20.63;100.00;101669.84;5029760;28;20165;-73
2023/09/08 07:45:34;;;;;;;;;;;;;;;20.76;100.00;101677.56;5035982;28;19921;-73
2023/09/08 07:47:59;;;;;;;;;;;;;;;20.86;100.00;101671.13;5024883;28;20372;-73
2023/09/08 07:50:25;;;;;;;;;;;;;;;21.03;100.00;101672.00;5029474;28;20330;-74
2023/09/08 07:52:51;;;;;;;;;;;;;;;21.08;100.00;101675.06;5037760;28;20134;-74
2023/09/08 07:55:16;;;;;;;;;;;;;;;21.29;100.00;101669.13;5033205;28;19920;-73
2023/09/08 07:57:42;;;;;;;;;;;;;;;21.34;100.00;101669.47;5037347;28;19935;-72
2023/09/08 08:00:10;;;;;;;;;;;;;;;21.53;100.00;101664.66;5035852;28;19917;-73
2023/09/08 08:02:35;;;;;;;;;;;;;;;21.68;100.00;101659.38;5036045;28;20306;-73
2023/09/08 08:05:00;;;;;;;;;;;;;;;21.87;100.00;101659.00;5035600;28;20415;-73
2023/09/08 08:07:26;;;;;;;;;;;;;;;22.04;100.00;101661.72;5036404;28;21029;-73
2023/09/08 08:09:53;;;;;;;;;;;;;;;22.25;100.00;101657.53;5034042;28;19931;-74
2023/09/08 08:12:18;;;;;;;;;;;;;;;22.36;100.00;101661.75;5035317;28;20967;-73
2023/09/08 08:14:44;;;;;;;;;;;;;;;22.52;100.00;101660.84;5032868;28;20386;-73
2023/09/08 08:17:09;;;;;;;;;;;;;;;22.56;100.00;101662.19;5034687;28;20407;-73
2023/09/08 08:19:34;;;;;;;;;;;;;;;22.68;100.00;101659.91;5030788;28;19931;-73
2023/09/08 08:21:59;;;;;;;;;;;;;;;22.69;100.00;101667.94;5033534;28;19916;-72
2023/09/08 08:24:25;;;;;;;;;;;;;;;22.73;100.00;101663.81;5033660;28;20687;-73
2023/09/08 08:26:51;;;;;;;;;;;;;;;22.85;100.00;101674.34;5035212;28;19920;-73
2023/09/08 08:29:17;;;;;;;;;;;;;;;22.96;100.00;101673.09;5033979;28;19967;-73
2023/09/08 08:31:42;;;;;;;;;;;;;;;23.11;100.00;101676.72;5034487;28;19924;-73
2023/09/08 08:34:08;;;;;;;;;;;;;;;23.23;100.00;101668.97;5034487;28;19920;-74
2023/09/08 08:36:34;;;;;;;;;;;;;;;23.33;100.00;101672.31;5033150;28;19928;-73
2023/09/08 08:38:59;;;;;;;;;;;;;;;23.38;100.00;101665.44;5014758;28;19967;-73
2023/09/08 08:41:24;;;;;;;;;;;;;;;23.50;100.00;101664.81;5031751;28;19924;-73
2023/09/08 08:43:50;;;;;;;;;;;;;;;23.64;100.00;101674.09;5032528;28;19928;-72
2023/09/08 08:46:15;;;;;;;;;;;;;;;23.77;100.00;101667.09;5031568;28;19947;-73
2023/09/08 08:48:40;;;;;;;;;;;;;;;23.91;100.00;101670.91;5028109;28;19921;-73
2023/09/08 08:51:05;;;;;;;;;;;;;;;23.99;100.00;101668.09;5029740;28;19924;-72
2023/09/08 08:53:31;;;;;;;;;;;;;;;23.89;100.00;101672.97;5031904;28;20240;-71
2023/09/08 08:55:56;;;;;;;;;;;;;;;23.96;100.00;101672.06;5009974;28;20019;-72
2023/09/08 08:58:25;;;;;;;;;;;;;;;24.13;100.00;101663.66;5029367;28;19924;-73
2023/09/08 09:00:50;;;;;;;;;;;;;;;24.20;100.00;101655.50;5027897;28;19982;-73
2023/09/08 09:03:16;;;;;;;;;;;;;;;24.37;100.00;101659.72;5029487;28;19925;-73
2023/09/08 09:05:41;;;;;;;;;;;;;;;24.60;100.00;101664.25;5025019;28;19944;-73
2023/09/08 09:08:06;;;;;;;;;;;;;;;24.75;100.00;101657.88;5012711;28;20003;-72
2023/09/08 09:10:31;;;;;;;;;;;;;;;24.92;100.00;101656.59;5027439;28;20375;-72
2023/09/08 09:12:57;;;;;;;;;;;;;;;25.07;100.00;101653.78;5031054;28;20398;-73
2023/09/08 09:15:32;;;;;;;;;;;;;;;25.32;100.00;101656.13;5031872;28;20712;-73
2023/09/08 09:18:04;;;;;;;;;;;;;;;25.40;100.00;101663.41;5025709;28;19929;-72
2023/09/08 09:20:29;;;;;;;;;;;;;;;25.39;100.00;101659.78;5028159;28;20244;-72
2023/09/08 09:22:54;;;;;;;;;;;;;;;25.52;100.00;101658.22;5033747;28;19927;-73
2023/09/08 09:25:23;;;;;;;;;;;;;;;25.62;100.00;101657.88;5028289;28;19920;-72
2023/09/08 09:27:53;;;;;;;;;;;;;;;25.81;100.00;101667.31;5011906;28;19924;-73
2023/09/08 09:30:18;;;;;;;;;;;;;;;25.88;100.00;101666.31;5030512;28;19931;-71
2023/09/08 09:32:44;;;;;;;;;;;;;;;26.02;100.00;101667.25;5032058;28;19920;-73
2023/09/08 09:35:09;;;;;;;;;;;;;;;26.16;100.00;101659.94;5027761;28;20657;-73
2023/09/08 09:37:35;;;;;;;;;;;;;;;26.41;100.00;101662.16;5029687;28;20027;-73
2023/09/08 09:40:01;;;;;;;;;;;;;;;26.60;100.00;101659.69;5028598;28;20432;-73
2023/09/08 09:42:27;;;;;;;;;;;;;;;26.70;100.00;101656.53;5031336;28;19991;-73
2023/09/08 09:44:52;;;;;;;;;;;;;;;26.90;100.00;101665.72;5028485;28;19921;-74
2023/09/08 09:47:17;;;;;;;;;;;;;;;27.04;100.00;101655.56;5031235;28;20401;-72
2023/09/08 09:49:46;;;;;;;;;;;;;;;27.10;100.00;101663.00;5025505;28;20396;-73
2023/09/08 09:52:15;;;;;;;;;;;;;;;27.01;100.00;101661.53;5009591;28;19943;-74
2023/09/08 09:54:40;;;;;;;;;;;;;;;26.87;100.00;101657.91;5027038;28;19921;-71
2023/09/08 09:57:06;;;;;;;;;;;;;;;26.92;100.00;101660.84;5009228;28;19921;-74
2023/09/08 09:59:31;;;;;;;;;;;;;;;27.01;100.00;101657.91;5013269;28;19931;-73
2023/09/08 10:01:56;;;;;;;;;;;;;;;27.15;100.00;101662.38;5031531;28;19917;-73
2023/09/08 10:04:21;;;;;;;;;;;;;;;27.42;100.00;101658.78;5032559;28;20237;-72
2023/09/08 10:06:46;;;;;;;;;;;;;;;27.36;100.00;101661.31;5028951;28;20016;-71
2023/09/08 10:09:13;;;;;;;;;;;;;;;27.54;100.00;101660.72;5030655;28;19923;-72
2023/09/08 10:11:41;;;;;;;;;;;;;;;27.51;88.22;101663.91;5026707;28;20011;-71
2023/09/08 10:14:07;;;;;;;;;;;;;;;27.84;100.00;101654.72;5032146;28;19935;-73
2023/09/08 10:16:34;;;;;;;;;;;;;;;28.13;89.45;101654.47;5029091;28;19943;-72
2023/09/08 10:18:59;;;;;;;;;;;;;;;27.79;85.54;101653.69;5028049;28;20425;-72
2023/09/08 10:21:25;;;;;;;;;;;;;;;27.59;86.83;101648.19;5026648;28;19924;-71
2023/09/08 10:23:54;;;;;;;;;;;;;;;27.88;79.63;101649.63;5029418;28;20332;-73
2023/09/08 10:26:19;;;;;;;;;;;;;;;28.19;92.21;101638.97;5028880;28;19954;-72
2023/09/08 10:28:45;;;;;;;;;;;;;;;28.23;82.90;101641.06;5028471;28;19921;-71
2023/09/08 10:31:10;;;;;;;;;;;;;;;28.10;89.67;101650.22;5029849;28;19998;-73
2023/09/08 10:33:35;;;;;;;;;;;;;;;28.26;80.87;101639.75;5031457;28;20011;-73
2023/09/08 10:36:03;;;;;;;;;;;;;;;28.23;82.90;101646.59;5030820;28;19925;-71
2023/09/08 10:38:30;;;;;;;;;;;;;;;28.60;85.12;101640.47;5027929;28;19925;-73
2023/09/08 10:41:14;;;;;;;;;;;;;;;29.13;83.39;101647.59;5029037;28;19925;-73
2023/09/08 10:43:39;;;;;;;;;;;;;;;29.34;76.71;101640.81;5026663;28;20398;-72
2023/09/08 10:46:25;;;;;;;;;;;;;;;29.34;77.21;101643.56;5031980;28;20067;-73
2023/09/08 10:48:50;;;;;;;;;;;;;;;29.70;76.20;101640.28;5031644;28;19946;-72
2023/09/08 10:51:18;;;;;;;;;;;;;;;29.68;81.19;101636.91;5026789;28;19928;-70
2023/09/08 10:53:46;;;;;;;;;;;;;;;30.12;78.32;101640.47;5031283;28;20011;-73
2023/09/08 10:56:11;;;;;;;;;;;;;;;30.34;78.08;101627.00;5027676;28;19927;-71
2023/09/08 10:58:38;;;;;;;;;;;;;;;30.81;70.45;101631.06;5030006;28;19964;-73
2023/09/08 11:01:04;;;;;;;;;;;;;;;31.44;65.64;101637.09;5025646;28;20384;-72
2023/09/08 11:03:38;;;;;;;;;;;;;;;31.45;67.64;101637.94;5028840;28;19925;-72
2023/09/08 11:06:04;;;;;;;;;;;;;;;31.79;66.32;101640.97;5028335;28;19963;-72
2023/09/08 11:08:29;;;;;;;;;;;;;;;31.94;57.25;101632.16;5028903;28;20046;-73
2023/09/08 11:10:55;;;;;;;;;;;;;;;32.41;58.11;101633.97;5032945;28;19920;-72
2023/09/08 11:13:20;;;;;;;;;;;;;;;32.39;59.75;101630.59;5027033;28;20385;-73
2023/09/08 11:15:45;;;;;;;;;;;;;;;32.25;64.42;101630.00;5031491;28;19920;-73
2023/09/08 11:18:10;;;;;;;;;;;;;;;32.93;55.13;101626.63;5031465;28;19952;-73
2023/09/08 11:20:35;;;;;;;;;;;;;;;33.62;52.26;101629.13;5027476;28;20293;-73
2023/09/08 11:23:01;;;;;;;;;;;;;;;33.85;52.09;101629.13;5031635;28;20249;-73
2023/09/08 11:25:26;;;;;;;;;;;;;;;34.19;54.23;101631.84;5031647;28;19920;-73
2023/09/08 11:27:51;;;;;;;;;;;;;;;33.86;48.12;101623.31;5031583;28;20375;-73
2023/09/08 11:30:17;;;;;;;;;;;;;;;34.12;47.85;101631.19;5031709;28;19965;-73
2023/09/08 11:32:42;;;;;;;;;;;;;;;34.43;48.73;101628.75;5029054;28;20029;-73
2023/09/08 11:35:09;;;;;;;;;;;;;;;34.30;50.08;101622.47;5025240;28;19956;-73
2023/09/08 11:37:35;;;;;;;;;;;;;;;34.92;48.24;101628.72;5027247;28;19928;-73
2023/09/08 11:40:01;;;;;;;;;;;;;;;35.14;45.61;101636.16;5029052;28;19968;-73
2023/09/08 11:42:26;;;;;;;;;;;;;;;34.29;45.93;101622.75;5030950;28;20039;-73
2023/09/08 11:44:51;;;;;;;;;;;;;;;34.83;48.22;101621.91;5032558;28;20035;-73
2023/09/08 11:47:16;;;;;;;;;;;;;;;34.58;48.76;101626.16;5025937;28;19927;-73
2023/09/08 11:49:42;;;;;;;;;;;;;;;34.76;46.84;101622.16;5036844;28;19925;-73
2023/09/08 11:52:07;;;;;;;;;;;;;;;34.44;52.75;101624.91;5030378;28;20721;-72
2023/09/08 11:54:33;;;;;;;;;;;;;;;34.39;46.31;101614.50;5016330;28;20114;-74
2023/09/08 11:56:59;;;;;;;;;;;;;;;34.59;50.32;101619.47;5031331;28;19920;-73
2023/09/08 11:59:25;;;;;;;;;;;;;;;35.19;49.42;101616.69;5025506;28;19924;-73
2023/09/08 12:01:50;;;;;;;;;;;;;;;35.99;41.92;101620.53;5032506;28;19928;-73
2023/09/08 12:04:20;;;;;;;;;;;;;;;36.12;46.05;101619.19;5032965;28;20375;-73
2023/09/08 12:06:45;;;;;;;;;;;;;;;36.97;38.85;101614.38;5029395;28;19928;-73
2023/09/08 12:09:11;;;;;;;;;;;;;;;37.86;40.84;101621.50;5028532;28;19920;-73
2023/09/08 12:11:41;;;;;;;;;;;;;;;37.36;39.08;101606.19;5032143;28;20022;-73
2023/09/08 12:14:07;;;;;;;;;;;;;;;37.16;39.43;101612.66;5031024;28;19956;-74
2023/09/08 12:16:32;;;;;;;;;;;;;;;35.97;42.71;101623.63;5031744;28;20387;-73
2023/09/08 12:18:57;;;;;;;;;;;;;;;35.61;42.99;101614.19;5028389;28;19928;-72
2023/09/08 12:21:22;;;;;;;;;;;;;;;35.57;48.67;101614.75;5035210;28;19916;-72